createdAt,value
2023-03-13T00:00:23.485Z,24.17
2023-03-13T00:10:56.326Z,21.63
2023-03-13T00:16:07.555Z,17.40
2023-03-13T00:21:14.486Z,15.63
2023-03-13T00:26:23.729Z,16.88
2023-03-13T00:31:33.955Z,17.80
2023-03-13T00:36:40.550Z,13.75
2023-03-13T00:41:48.304Z,9.30
2023-03-13T00:46:56.224Z,10.23
2023-03-13T00:52:02.555Z,13.30
2023-03-13T00:57:09.358Z,14.50
2023-03-13T01:02:17.566Z,12.98
2023-03-13T01:07:24.089Z,13.17
2023-03-13T01:12:31.319Z,12.07
2023-03-13T01:17:39.387Z,15.07
2023-03-13T01:22:46.178Z,14.03
2023-03-13T01:27:53.389Z,18.20
2023-03-13T01:33:04.004Z,14.10
2023-03-13T01:38:11.284Z,12.15
2023-03-13T01:43:26.816Z,12.43
2023-03-13T01:48:47.971Z,11.20
2023-03-13T01:54:05.029Z,11.07
2023-03-13T01:59:15.978Z,11.30
2023-03-13T02:04:25.669Z,11.02
2023-03-13T02:09:34.244Z,8.27
2023-03-13T02:14:43.619Z,9.05
2023-03-13T02:19:53.613Z,13.20
2023-03-13T02:25:09.409Z,10.30
2023-03-13T02:30:18.240Z,12.75
2023-03-13T02:35:26.214Z,13.32
2023-03-13T02:40:37.201Z,9.63
2023-03-13T02:46:01.586Z,9.15
2023-03-13T02:51:18.122Z,12.27
2023-03-13T02:56:28.898Z,11.75
2023-03-13T03:01:37.268Z,11.68
2023-03-13T03:06:43.840Z,9.07
2023-03-13T03:11:50.851Z,10.57
2023-03-13T03:16:58.838Z,16.92
2023-03-13T03:22:06.669Z,11.93
2023-03-13T03:27:13.891Z,12.63
2023-03-13T03:32:28.513Z,10.73
2023-03-13T03:37:35.470Z,13.35
2023-03-13T03:42:43.846Z,13.40
2023-03-13T03:47:51.984Z,17.20
2023-03-13T03:52:58.677Z,19.33
2023-03-13T03:58:06.080Z,13.10
2023-03-13T04:03:34.509Z,13.77
2023-03-13T04:08:41.412Z,13.35
2023-03-13T04:13:50.481Z,16.33
2023-03-13T04:18:59.088Z,13.43
2023-03-13T04:24:07.460Z,16.50
2023-03-13T04:29:16.086Z,14.13
2023-03-13T04:34:50.783Z,13.43
2023-03-13T04:40:17.902Z,15.65
2023-03-13T04:45:55.267Z,17.50
2023-03-13T04:51:03.968Z,17.45
2023-03-13T04:56:41.778Z,13.52
2023-03-13T05:02:12.233Z,19.05
2023-03-13T05:07:20.903Z,18.75
2023-03-13T05:12:46.691Z,16.27
2023-03-13T05:18:28.917Z,17.00
2023-03-13T05:24:07.135Z,12.77
2023-03-13T05:29:14.058Z,12.20
2023-03-13T05:34:46.762Z,17.75
2023-03-13T05:40:15.974Z,15.07
2023-03-13T05:45:54.732Z,12.57
2023-03-13T05:51:16.894Z,13.27
2023-03-13T05:56:37.687Z,15.90
2023-03-13T06:02:02.454Z,17.20
2023-03-13T06:07:17.684Z,18.98
2023-03-13T06:12:25.569Z,13.57
2023-03-13T06:17:31.960Z,13.55
2023-03-13T06:22:38.812Z,12.05
2023-03-13T06:27:46.924Z,13.45
2023-03-13T06:32:53.574Z,14.25
2023-03-13T06:38:00.299Z,14.35
2023-03-13T06:43:08.419Z,14.20
2023-03-13T06:48:14.950Z,12.47
2023-03-13T06:53:22.592Z,14.85
2023-03-13T06:58:32.784Z,18.02
2023-03-13T07:03:41.719Z,16.23
2023-03-13T07:08:48.847Z,19.83
2023-03-13T07:14:15.200Z,12.88
2023-03-13T07:19:23.372Z,12.43
2023-03-13T07:24:29.905Z,13.43
2023-03-13T07:29:38.114Z,14.05
2023-03-13T07:34:45.683Z,10.93
2023-03-13T07:39:52.376Z,14.95
2023-03-13T07:45:00.409Z,11.77
2023-03-13T07:50:08.302Z,11.82
2023-03-13T07:55:14.781Z,14.07
2023-03-13T08:00:24.609Z,14.93
2023-03-13T08:05:32.127Z,13.82
2023-03-13T08:10:38.679Z,17.00
2023-03-13T08:15:46.429Z,19.27
2023-03-13T08:20:52.821Z,15.40
2023-03-13T08:26:03.136Z,18.02
2023-03-13T08:31:12.984Z,12.10
2023-03-13T08:36:23.539Z,12.45
2023-03-13T08:41:48.361Z,11.13
2023-03-13T08:46:57.326Z,16.92
2023-03-13T08:52:05.796Z,8.80
2023-03-13T08:57:12.260Z,10.60
2023-03-13T09:02:21.589Z,11.80
2023-03-13T09:07:28.248Z,10.95
2023-03-13T09:12:34.671Z,11.35
2023-03-13T09:17:42.813Z,8.27
2023-03-13T09:22:51.271Z,10.40
2023-03-13T09:27:57.774Z,12.23
2023-03-13T09:33:05.794Z,11.20
2023-03-13T09:38:12.437Z,10.20
2023-03-13T09:43:34.820Z,14.40
2023-03-13T09:48:47.670Z,14.57
2023-03-13T09:54:01.492Z,12.07
2023-03-13T09:59:19.106Z,12.82
2023-03-13T10:04:36.118Z,10.88
2023-03-13T10:09:42.827Z,11.75
2023-03-13T10:15:02.226Z,9.93
2023-03-13T10:20:24.862Z,9.50
2023-03-13T10:25:35.394Z,13.40
2023-03-13T10:30:48.865Z,12.38
2023-03-13T10:36:10.860Z,15.50
2023-03-13T10:41:32.808Z,10.38
2023-03-13T10:46:45.367Z,10.18
2023-03-13T10:51:56.244Z,17.23
2023-03-13T10:57:30.530Z,12.48
2023-03-13T11:02:40.466Z,12.48
2023-03-13T11:07:48.686Z,14.43
2023-03-13T11:12:57.446Z,8.20
2023-03-13T11:18:13.089Z,13.27
2023-03-13T11:23:27.376Z,13.15
2023-03-13T11:28:52.346Z,11.45
2023-03-13T11:34:07.631Z,14.57
2023-03-13T11:39:43.028Z,7.50
2023-03-13T11:44:59.955Z,12.02
2023-03-13T11:50:27.901Z,9.35
2023-03-13T11:55:57.656Z,13.10
2023-03-13T12:01:09.782Z,9.07
2023-03-13T12:06:28.798Z,9.65
2023-03-13T12:11:44.218Z,9.93
2023-03-13T12:16:56.194Z,12.63
2023-03-13T12:22:14.853Z,10.13
2023-03-13T12:27:32.976Z,6.07
2023-03-13T12:32:45.346Z,9.53
2023-03-13T12:38:00.100Z,9.95
2023-03-13T12:43:16.324Z,8.35
2023-03-13T12:48:47.078Z,12.27
2023-03-13T12:54:41.970Z,13.25
2023-03-13T12:59:56.190Z,11.77
2023-03-13T13:05:04.571Z,11.73
2023-03-13T13:10:25.462Z,11.13
2023-03-13T13:15:33.533Z,11.98
2023-03-13T13:20:47.422Z,15.10
2023-03-13T13:25:55.822Z,11.43
2023-03-13T13:31:24.461Z,10.83
2023-03-13T13:36:44.949Z,12.70
2023-03-13T13:41:51.645Z,13.25
2023-03-13T13:47:02.367Z,10.20
2023-03-13T13:52:43.886Z,11.27
2023-03-13T13:57:54.127Z,10.85
2023-03-13T14:03:00.895Z,10.52
2023-03-13T14:08:19.463Z,13.40
2023-03-13T14:13:26.407Z,11.25
2023-03-13T14:18:33.730Z,6.90
2023-03-13T14:23:45.022Z,10.32
2023-03-13T14:28:54.282Z,7.25
2023-03-13T14:39:21.790Z,9.00
2023-03-13T14:44:32.605Z,7.80
2023-03-13T14:49:39.774Z,7.95
2023-03-13T14:54:58.250Z,11.75
2023-03-13T15:00:36.694Z,5.38
2023-03-13T15:05:43.302Z,9.80
2023-03-13T15:10:52.346Z,10.65
2023-03-13T15:15:59.063Z,9.07
2023-03-13T15:21:27.826Z,8.88
2023-03-13T15:26:35.936Z,12.43
2023-03-13T15:31:42.881Z,11.10
2023-03-13T15:36:49.675Z,7.80
2023-03-13T15:41:57.559Z,9.10
2023-03-13T15:47:04.454Z,10.00
2023-03-13T15:52:19.356Z,9.20
2023-03-13T15:57:29.475Z,9.13
2023-03-13T16:02:36.030Z,6.07
2023-03-13T16:07:42.621Z,9.13
2023-03-13T16:12:50.600Z,8.23
2023-03-13T16:17:57.127Z,9.82
2023-03-13T16:23:04.880Z,10.68
2023-03-13T16:28:16.330Z,9.93
2023-03-13T16:33:23.658Z,15.07
2023-03-13T16:38:30.744Z,12.80
2023-03-13T16:43:39.106Z,8.05
2023-03-13T16:48:47.109Z,9.13
2023-03-13T16:53:56.689Z,9.47
2023-03-13T16:59:09.074Z,8.55
2023-03-13T17:04:16.723Z,7.63
2023-03-13T17:09:23.400Z,10.45
2023-03-13T17:14:33.609Z,8.23
2023-03-13T17:19:40.886Z,7.30
2023-03-13T17:24:50.325Z,6.70
2023-03-13T17:30:00.417Z,12.63
2023-03-13T17:35:08.795Z,8.23
2023-03-13T17:40:22.647Z,11.27
2023-03-13T17:45:31.336Z,13.02
2023-03-13T17:50:40.836Z,6.82
2023-03-13T17:55:49.258Z,11.98
2023-03-13T18:00:59.236Z,9.00
2023-03-13T18:06:16.640Z,6.40
2023-03-13T18:11:27.115Z,6.85
2023-03-13T18:16:42.870Z,9.93
2023-03-13T18:21:53.607Z,9.05
2023-03-13T18:27:03.595Z,10.20
2023-03-13T18:32:15.984Z,5.97
2023-03-13T18:37:29.363Z,7.30
2023-03-13T18:42:38.320Z,9.68
2023-03-13T18:47:53.302Z,5.75
2023-03-13T18:53:05.106Z,7.68
2023-03-13T18:58:15.824Z,6.70
2023-03-13T19:03:29.665Z,9.20
2023-03-13T19:08:40.610Z,7.32
2023-03-13T19:13:52.625Z,7.05
2023-03-13T19:19:06.015Z,8.25
2023-03-13T19:24:17.885Z,6.22
2023-03-13T19:29:30.444Z,6.55
2023-03-13T19:34:42.006Z,7.00
2023-03-13T19:39:54.598Z,8.45
2023-03-13T19:45:06.810Z,10.20
2023-03-13T19:50:28.741Z,8.88
2023-03-13T19:55:37.979Z,13.05
2023-03-13T20:00:48.142Z,10.68
2023-03-13T20:05:59.550Z,10.10
2023-03-13T20:11:08.998Z,13.85
2023-03-13T20:16:18.864Z,10.60
2023-03-13T20:21:33.167Z,9.10
2023-03-13T20:26:45.289Z,8.50
2023-03-13T20:31:53.816Z,8.88
2023-03-13T20:42:18.336Z,8.82
2023-03-13T20:47:29.160Z,9.25
2023-03-13T20:52:43.159Z,9.00
2023-03-13T20:57:54.057Z,7.28
2023-03-13T21:03:04.836Z,5.88
2023-03-13T21:08:15.069Z,8.38
2023-03-13T21:13:24.033Z,10.15
2023-03-13T21:23:45.923Z,8.50
2023-03-13T21:28:54.798Z,7.72
2023-03-13T21:34:02.564Z,9.50
2023-03-13T21:39:12.718Z,7.72
2023-03-13T21:44:20.069Z,8.77
2023-03-13T21:49:27.045Z,6.97
2023-03-13T21:54:35.810Z,7.38
2023-03-13T21:59:43.445Z,6.68
2023-03-13T22:04:51.304Z,7.13
2023-03-13T22:10:00.498Z,6.15
2023-03-13T22:15:08.813Z,8.15
2023-03-13T22:20:15.887Z,6.90
2023-03-13T22:25:24.289Z,5.90
2023-03-13T22:30:30.876Z,10.27
2023-03-13T22:35:40.061Z,7.93
2023-03-13T22:40:48.814Z,6.07
2023-03-13T22:51:08.462Z,8.25
2023-03-13T22:56:17.211Z,6.70
2023-03-13T23:01:23.708Z,5.27
2023-03-13T23:06:30.427Z,9.27
2023-03-13T23:11:38.795Z,7.07
2023-03-13T23:16:45.860Z,7.73
2023-03-13T23:21:52.795Z,11.57
2023-03-13T23:27:01.004Z,5.25
2023-03-13T23:32:07.657Z,5.90
2023-03-13T23:37:14.127Z,8.57
2023-03-13T23:42:21.882Z,7.50
2023-03-13T23:47:31.843Z,8.00
2023-03-13T23:52:39.180Z,6.82
2023-03-13T23:57:51.022Z,6.57
